Time;durP1;ratioP1;P1;durP2;ratioP2;P2;SDS_P1;SDS_P2;PMS_P1;PMS_P2;Temp;Humidity;BMP_temperature;BMP_pressure;BME280_temperature;BME280_humidity;BME280_pressure;Samples;Min_cycle;Max_cycle;Signal;HPM_P1;HPM_P2
2023/03/11 00:01:12;;;;;;;0.47;0.45;;;;;;;;;;5140413;27;20209;-62
2023/03/11 00:03:40;;;;;;;0.40;0.40;;;;;;;;;;5140955;27;20244;-62
2023/03/11 00:06:08;;;;;;;0.50;0.30;;;;;;;;;;5140684;27;20233;-62
2023/03/11 00:08:36;;;;;;;0.40;0.40;;;;;;;;;;5140873;27;20253;-63
2023/03/11 00:11:03;;;;;;;0.32;0.30;;;;;;;;;;5140670;27;20621;-62
2023/03/11 00:13:31;;;;;;;0.38;0.38;;;;;;;;;;5140788;27;20206;-62
2023/03/11 00:16:01;;;;;;;0.45;0.40;;;;;;;;;;5140267;27;20191;-62
2023/03/11 00:18:30;;;;;;;0.43;0.30;;;;;;;;;;5140039;27;20202;-62
2023/03/11 00:20:59;;;;;;;0.40;0.40;;;;;;;;;;5140723;27;20202;-62
2023/03/11 00:23:27;;;;;;;0.50;0.40;;;;;;;;;;5140730;27;20301;-63
2023/03/11 00:25:55;;;;;;;0.30;0.30;;;;;;;;;;5140318;27;20226;-62
2023/03/11 00:28:25;;;;;;;0.55;0.55;;;;;;;;;;5140853;27;20202;-62
2023/03/11 00:30:53;;;;;;;0.70;0.40;;;;;;;;;;5140512;27;20210;-63
2023/03/11 00:33:20;;;;;;;0.43;0.40;;;;;;;;;;5140818;27;20237;-62
2023/03/11 00:35:50;;;;;;;0.38;0.38;;;;;;;;;;5140813;27;20197;-62
2023/03/11 00:38:18;;;;;;;0.40;0.38;;;;;;;;;;5140836;27;20253;-62
2023/03/11 00:40:47;;;;;;;0.50;0.50;;;;;;;;;;5140454;27;20245;-63
2023/03/11 00:43:16;;;;;;;0.50;0.50;;;;;;;;;;5140479;27;20578;-63
2023/03/11 00:45:44;;;;;;;0.47;0.47;;;;;;;;;;5140776;27;20234;-62
2023/03/11 00:48:12;;;;;;;0.63;0.50;;;;;;;;;;5140659;27;20559;-62
2023/03/11 00:50:41;;;;;;;0.30;0.30;;;;;;;;;;5140449;27;20202;-63
2023/03/11 00:53:11;;;;;;;0.40;0.40;;;;;;;;;;5140748;27;20202;-62
2023/03/11 00:55:39;;;;;;;0.40;0.40;;;;;;;;;;5139699;27;20205;-62
2023/03/11 00:58:07;;;;;;;0.50;0.50;;;;;;;;;;5140181;27;20602;-62
2023/03/11 01:00:35;;;;;;;0.40;0.40;;;;;;;;;;5139985;27;20462;-62
2023/03/11 01:03:03;;;;;;;0.50;0.50;;;;;;;;;;5140767;27;20209;-62
2023/03/11 01:05:32;;;;;;;0.68;0.68;;;;;;;;;;5140312;27;20202;-62
2023/03/11 01:08:00;;;;;;;0.40;0.40;;;;;;;;;;5140281;27;20242;-63
2023/03/11 01:10:29;;;;;;;0.40;0.40;;;;;;;;;;5140223;27;20203;-62
2023/03/11 01:12:57;;;;;;;0.60;0.60;;;;;;;;;;5139942;27;20232;-62
2023/03/11 01:15:26;;;;;;;0.50;0.50;;;;;;;;;;5139675;27;20240;-64
2023/03/11 01:17:53;;;;;;;0.52;0.52;;;;;;;;;;5140183;27;20209;-63
2023/03/11 01:20:21;;;;;;;0.50;0.50;;;;;;;;;;5139493;27;20574;-62
2023/03/11 01:22:49;;;;;;;0.50;0.50;;;;;;;;;;5139788;27;20202;-62
2023/03/11 01:25:18;;;;;;;0.50;0.50;;;;;;;;;;5139494;27;20225;-62
2023/03/11 01:27:47;;;;;;;0.50;0.50;;;;;;;;;;5139523;27;20499;-62
2023/03/11 01:30:16;;;;;;;0.70;0.70;;;;;;;;;;5139715;27;20267;-61
2023/03/11 01:32:44;;;;;;;0.55;0.55;;;;;;;;;;5139574;27;20299;-62
2023/03/11 01:35:12;;;;;;;0.40;0.40;;;;;;;;;;5139604;27;20203;-63
2023/03/11 01:37:40;;;;;;;0.70;0.60;;;;;;;;;;5139709;27;20248;-62
2023/03/11 01:40:09;;;;;;;0.65;0.65;;;;;;;;;;5140256;27;20582;-62
2023/03/11 01:42:37;;;;;;;0.43;0.43;;;;;;;;;;5139704;27;20267;-61
2023/03/11 01:45:17;;;;;;;0.60;0.60;;;;;;;;;;5139702;27;20201;-63
2023/03/11 01:47:45;;;;;;;0.50;0.50;;;;;;;;;;5139475;27;20237;-62
2023/03/11 01:50:13;;;;;;;0.50;0.50;;;;;;;;;;5140032;27;20489;-62
2023/03/11 01:52:42;;;;;;;0.30;0.30;;;;;;;;;;5139227;27;20252;-61
2023/03/11 01:55:10;;;;;;;0.55;0.43;;;;;;;;;;5139288;27;20212;-62
2023/03/11 01:57:39;;;;;;;0.60;0.60;;;;;;;;;;5139604;27;20202;-62
2023/03/11 02:00:11;;;;;;;0.50;0.50;;;;;;;;;;5139284;27;20202;-62
2023/03/11 02:02:42;;;;;;;0.60;0.60;;;;;;;;;;5139003;27;20203;-63
2023/03/11 02:05:10;;;;;;;0.40;0.40;;;;;;;;;;5139074;27;20214;-62
2023/03/11 02:07:39;;;;;;;0.60;0.50;;;;;;;;;;5138298;27;20237;-62
2023/03/11 02:10:07;;;;;;;0.50;0.50;;;;;;;;;;5139168;27;20208;-62
2023/03/11 02:12:36;;;;;;;0.60;0.60;;;;;;;;;;5139379;27;20210;-61
2023/03/11 02:15:05;;;;;;;0.60;0.40;;;;;;;;;;5138794;27;20206;-62
2023/03/11 02:17:35;;;;;;;0.68;0.60;;;;;;;;;;5139069;27;20202;-62
2023/03/11 02:20:18;;;;;;;0.50;0.50;;;;;;;;;;5138650;27;20537;-62
2023/03/11 02:22:45;;;;;;;0.50;0.50;;;;;;;;;;5136013;27;20216;-61
2023/03/11 02:25:17;;;;;;;0.85;0.60;;;;;;;;;;5139233;28;20616;-62
2023/03/11 02:27:48;;;;;;;0.50;0.50;;;;;;;;;;5138893;28;20312;-62
2023/03/11 02:30:16;;;;;;;0.65;0.65;;;;;;;;;;5139217;27;20212;-61
2023/03/11 02:32:46;;;;;;;0.55;0.55;;;;;;;;;;5129776;27;20226;-62
2023/03/11 02:35:15;;;;;;;0.50;0.50;;;;;;;;;;5118671;28;20203;-62
2023/03/11 02:37:46;;;;;;;0.60;0.60;;;;;;;;;;5118355;28;20199;-62
2023/03/11 02:40:32;;;;;;;0.43;0.43;;;;;;;;;;5118538;28;20211;-62
2023/03/11 02:43:02;;;;;;;0.93;0.50;;;;;;;;;;5118027;28;20207;-62
2023/03/11 02:45:31;;;;;;;0.60;0.60;;;;;;;;;;5118435;28;20203;-62
2023/03/11 02:47:59;;;;;;;0.50;0.50;;;;;;;;;;5118342;28;20368;-62
2023/03/11 02:50:28;;;;;;;1.05;0.52;;;;;;;;;;5109882;28;20214;-62
2023/03/11 02:52:56;;;;;;;0.60;0.60;;;;;;;;;;5118523;28;20203;-62
2023/03/11 02:55:24;;;;;;;0.50;0.50;;;;;;;;;;5118050;28;20226;-62
2023/03/11 02:57:52;;;;;;;0.50;0.50;;;;;;;;;;5118087;28;20276;-62
2023/03/11 03:00:21;;;;;;;0.52;0.52;;;;;;;;;;5118380;28;20202;-62
2023/03/11 03:02:52;;;;;;;0.63;0.63;;;;;;;;;;5118169;28;20207;-62
2023/03/11 03:05:20;;;;;;;0.60;0.60;;;;;;;;;;5118101;28;20257;-62
2023/03/11 03:07:48;;;;;;;0.55;0.52;;;;;;;;;;5118234;28;20231;-63
2023/03/11 03:10:16;;;;;;;0.52;0.52;;;;;;;;;;5117719;28;20203;-62
2023/03/11 03:12:44;;;;;;;0.43;0.43;;;;;;;;;;5117766;28;20209;-62
2023/03/11 03:15:14;;;;;;;0.60;0.60;;;;;;;;;;5117782;28;20485;-62
2023/03/11 03:17:44;;;;;;;0.50;0.50;;;;;;;;;;5118800;28;20260;-62
2023/03/11 03:20:13;;;;;;;0.60;0.60;;;;;;;;;;5121795;28;20290;-62
2023/03/11 03:22:41;;;;;;;0.50;0.50;;;;;;;;;;5121868;28;20210;-62
2023/03/11 03:25:09;;;;;;;0.68;0.68;;;;;;;;;;5121871;28;20245;-62
2023/03/11 03:27:37;;;;;;;0.50;0.50;;;;;;;;;;5121504;28;20222;-62
2023/03/11 03:30:06;;;;;;;0.60;0.60;;;;;;;;;;5121515;28;20488;-62
2023/03/11 03:32:33;;;;;;;0.93;0.45;;;;;;;;;;5117971;28;20234;-62
2023/03/11 03:35:03;;;;;;;0.50;0.50;;;;;;;;;;5121507;28;20214;-63
2023/03/11 03:37:33;;;;;;;0.50;0.50;;;;;;;;;;5121537;28;20199;-62
2023/03/11 03:40:03;;;;;;;0.63;0.63;;;;;;;;;;5120425;28;20206;-62
2023/03/11 03:42:34;;;;;;;0.50;0.50;;;;;;;;;;5121120;28;20214;-62
2023/03/11 03:45:01;;;;;;;0.40;0.40;;;;;;;;;;5121545;28;20297;-62
2023/03/11 03:47:29;;;;;;;0.50;0.50;;;;;;;;;;5121060;28;20344;-62
2023/03/11 03:49:58;;;;;;;0.40;0.40;;;;;;;;;;5121298;28;20490;-62
2023/03/11 03:52:27;;;;;;;0.70;0.70;;;;;;;;;;5121177;28;20203;-63
2023/03/11 03:54:55;;;;;;;0.57;0.52;;;;;;;;;;5120767;28;20222;-62
2023/03/11 03:57:23;;;;;;;0.47;0.47;;;;;;;;;;5120778;28;20199;-62
2023/03/11 03:59:50;;;;;;;0.47;0.40;;;;;;;;;;5120880;28;20264;-62
2023/03/11 04:02:18;;;;;;;0.45;0.45;;;;;;;;;;5121280;28;20484;-62
2023/03/11 04:04:46;;;;;;;0.30;0.30;;;;;;;;;;5121064;28;20210;-62
2023/03/11 04:07:14;;;;;;;0.50;0.50;;;;;;;;;;5120826;28;20262;-62
2023/03/11 04:09:44;;;;;;;0.30;0.30;;;;;;;;;;5120420;28;20551;-62
2023/03/11 04:12:14;;;;;;;0.30;0.30;;;;;;;;;;5120294;28;20287;-62
2023/03/11 04:14:41;;;;;;;0.40;0.40;;;;;;;;;;5120552;28;20202;-62
2023/03/11 04:17:10;;;;;;;0.75;0.40;;;;;;;;;;5120249;28;20199;-62
2023/03/11 04:19:37;;;;;;;0.32;0.32;;;;;;;;;;5120005;28;20628;-62
2023/03/11 04:22:06;;;;;;;0.50;0.50;;;;;;;;;;5120340;28;20214;-62
2023/03/11 04:24:33;;;;;;;0.40;0.40;;;;;;;;;;5120554;28;20314;-62
2023/03/11 04:27:02;;;;;;;0.50;0.43;;;;;;;;;;5119095;28;20610;-62
2023/03/11 04:29:30;;;;;;;0.50;0.50;;;;;;;;;;5118629;28;20234;-62
2023/03/11 04:31:58;;;;;;;0.40;0.40;;;;;;;;;;5122987;27;20203;-62
2023/03/11 04:34:25;;;;;;;0.73;0.40;;;;;;;;;;5140659;27;20220;-62
2023/03/11 04:36:53;;;;;;;0.40;0.40;;;;;;;;;;5140887;27;20281;-62
2023/03/11 04:39:21;;;;;;;0.40;0.40;;;;;;;;;;5141266;27;20202;-62
2023/03/11 04:41:49;;;;;;;0.40;0.40;;;;;;;;;;5140818;27;20308;-62
2023/03/11 04:44:18;;;;;;;0.40;0.40;;;;;;;;;;5140794;27;20574;-62
2023/03/11 04:46:46;;;;;;;0.40;0.40;;;;;;;;;;5140516;27;20256;-62
2023/03/11 04:49:14;;;;;;;0.40;0.40;;;;;;;;;;5140781;27;20202;-62
2023/03/11 04:51:42;;;;;;;0.20;0.20;;;;;;;;;;5140022;27;20293;-62
2023/03/11 04:54:10;;;;;;;0.43;0.43;;;;;;;;;;5139511;27;20213;-63
2023/03/11 04:56:38;;;;;;;0.30;0.30;;;;;;;;;;5140161;27;20301;-62
2023/03/11 04:59:06;;;;;;;0.40;0.40;;;;;;;;;;5140148;27;20202;-62
2023/03/11 05:01:35;;;;;;;0.30;0.30;;;;;;;;;;5139584;27;20301;-62
2023/03/11 05:04:02;;;;;;;0.32;0.32;;;;;;;;;;5140111;27;20531;-62
2023/03/11 05:06:30;;;;;;;0.50;0.40;;;;;;;;;;5140009;27;20240;-62
2023/03/11 05:08:58;;;;;;;0.50;0.40;;;;;;;;;;5140048;27;20710;-62
2023/03/11 05:11:26;;;;;;;0.43;0.40;;;;;;;;;;5140308;27;20203;-62
2023/03/11 05:13:53;;;;;;;0.43;0.40;;;;;;;;;;5139577;27;20300;-62
2023/03/11 05:16:21;;;;;;;0.40;0.40;;;;;;;;;;5139922;27;20284;-62
2023/03/11 05:18:50;;;;;;;0.40;0.40;;;;;;;;;;5139954;27;20430;-62
2023/03/11 05:21:17;;;;;;;0.47;0.47;;;;;;;;;;5139273;27;20582;-62
2023/03/11 05:23:45;;;;;;;0.30;0.30;;;;;;;;;;5139972;27;20288;-62
2023/03/11 05:26:13;;;;;;;0.40;0.40;;;;;;;;;;5139703;27;20288;-61
2023/03/11 05:28:40;;;;;;;0.50;0.50;;;;;;;;;;5139740;27;20226;-62
2023/03/11 05:31:09;;;;;;;0.32;0.32;;;;;;;;;;5139538;27;20202;-63
2023/03/11 05:33:36;;;;;;;0.50;0.40;;;;;;;;;;5122896;27;20226;-61
2023/03/11 05:36:09;;;;;;;0.50;0.50;;;;;;;;;;5118718;28;20709;-63
2023/03/11 05:38:37;;;;;;;0.50;0.50;;;;;;;;;;5118659;28;20199;-62
2023/03/11 05:41:05;;;;;;;0.32;0.32;;;;;;;;;;5118454;28;20209;-61
2023/03/11 05:43:32;;;;;;;0.50;0.50;;;;;;;;;;5118757;28;20233;-61
2023/03/11 05:46:00;;;;;;;0.40;0.40;;;;;;;;;;5118542;28;20253;-62
2023/03/11 05:48:27;;;;;;;0.70;0.50;;;;;;;;;;5110203;28;20227;-62
2023/03/11 05:50:54;;;;;;;0.50;0.50;;;;;;;;;;5118503;28;20195;-62
2023/03/11 05:53:24;;;;;;;0.35;0.35;;;;;;;;;;5118713;28;20556;-62
2023/03/11 05:55:56;;;;;;;0.35;0.35;;;;;;;;;;5118555;28;20203;-62
2023/03/11 05:58:24;;;;;;;0.57;0.40;;;;;;;;;;5118692;28;20289;-63
2023/03/11 06:00:51;;;;;;;0.30;0.30;;;;;;;;;;5118568;28;20497;-62
2023/03/11 06:03:19;;;;;;;0.30;0.30;;;;;;;;;;5118844;28;20203;-62
2023/03/11 06:05:46;;;;;;;0.40;0.40;;;;;;;;;;5118402;28;20240;-62
2023/03/11 06:08:14;;;;;;;0.40;0.40;;;;;;;;;;5118341;28;20284;-62
2023/03/11 06:10:43;;;;;;;0.45;0.45;;;;;;;;;;5118651;28;20203;-62
2023/03/11 06:13:11;;;;;;;0.65;0.50;;;;;;;;;;5118582;28;20203;-62
2023/03/11 06:15:38;;;;;;;1.50;0.70;;;;;;;;;;5118363;28;20203;-62
2023/03/11 06:18:06;;;;;;;0.80;0.70;;;;;;;;;;5118054;28;20199;-62
2023/03/11 06:20:34;;;;;;;1.85;0.57;;;;;;;;;;5117823;28;20625;-62
2023/03/11 06:23:01;;;;;;;0.90;0.70;;;;;;;;;;5118589;28;20234;-62
2023/03/11 06:25:28;;;;;;;1.25;0.82;;;;;;;;;;5117572;28;20302;-62
2023/03/11 06:27:57;;;;;;;1.45;0.85;;;;;;;;;;5117869;28;20322;-62
2023/03/11 06:30:25;;;;;;;1.27;0.80;;;;;;;;;;5118100;28;20203;-62
2023/03/11 06:32:53;;;;;;;1.05;0.70;;;;;;;;;;5128395;27;20234;-62
2023/03/11 06:35:21;;;;;;;1.02;0.90;;;;;;;;;;5138554;27;20210;-62
2023/03/11 06:37:49;;;;;;;1.02;0.93;;;;;;;;;;5137867;27;20580;-62
2023/03/11 06:40:16;;;;;;;1.80;1.00;;;;;;;;;;5138894;27;20194;-62
2023/03/11 06:42:46;;;;;;;2.72;0.80;;;;;;;;;;5138484;27;20267;-62
2023/03/11 06:45:15;;;;;;;1.27;1.00;;;;;;;;;;5138513;27;20206;-62
2023/03/11 06:47:42;;;;;;;1.85;1.00;;;;;;;;;;5138740;28;20226;-62
2023/03/11 06:50:10;;;;;;;3.63;1.77;;;;;;;;;;5138162;27;20233;-67
2023/03/11 06:52:38;;;;;;;2.15;1.65;;;;;;;;;;5139452;27;20234;-62
2023/03/11 06:55:05;;;;;;;1.60;1.50;;;;;;;;;;5143282;27;20234;-63
2023/03/11 06:57:33;;;;;;;3.03;2.08;;;;;;;;;;5142992;27;20198;-62
2023/03/11 07:00:04;;;;;;;3.13;1.88;;;;;;;;;;5142568;27;20202;-62
2023/03/11 07:02:33;;;;;;;2.85;1.85;;;;;;;;;;5141818;27;20297;-62
2023/03/11 07:05:01;;;;;;;2.20;1.70;;;;;;;;;;5141576;27;20202;-62
2023/03/11 07:07:28;;;;;;;2.30;1.60;;;;;;;;;;5141338;27;20194;-62
2023/03/11 07:09:56;;;;;;;4.60;1.80;;;;;;;;;;5142111;27;20314;-62
2023/03/11 07:12:24;;;;;;;4.80;2.05;;;;;;;;;;5141747;27;20203;-62
2023/03/11 07:14:54;;;;;;;2.60;1.90;;;;;;;;;;5141961;27;20210;-63
2023/03/11 07:17:22;;;;;;;3.38;1.63;;;;;;;;;;5141675;27;20210;-62
2023/03/11 07:19:51;;;;;;;2.33;1.52;;;;;;;;;;5141827;27;20207;-62
2023/03/11 07:22:18;;;;;;;4.43;1.50;;;;;;;;;;5141606;27;20557;-62
2023/03/11 07:24:46;;;;;;;2.55;1.70;;;;;;;;;;5141668;27;20194;-62
2023/03/11 07:27:14;;;;;;;3.13;1.50;;;;;;;;;;5141184;27;20202;-62
2023/03/11 07:29:41;;;;;;;2.25;1.48;;;;;;;;;;5141438;27;20230;-62
2023/03/11 07:32:09;;;;;;;2.20;1.52;;;;;;;;;;5141017;27;20242;-62
2023/03/11 07:34:36;;;;;;;2.25;1.42;;;;;;;;;;5141359;27;20570;-62
2023/03/11 07:37:05;;;;;;;1.85;1.38;;;;;;;;;;5141233;27;20312;-62
2023/03/11 07:39:33;;;;;;;2.00;1.48;;;;;;;;;;5141089;27;20206;-62
2023/03/11 07:42:00;;;;;;;1.98;1.40;;;;;;;;;;5140761;27;20570;-63
2023/03/11 07:44:28;;;;;;;2.70;1.52;;;;;;;;;;5141352;27;20624;-62
2023/03/11 07:46:56;;;;;;;1.75;1.40;;;;;;;;;;5122339;27;20199;-62
2023/03/11 07:49:23;;;;;;;1.88;1.30;;;;;;;;;;5120335;28;20548;-62
2023/03/11 07:51:51;;;;;;;2.47;1.20;;;;;;;;;;5121058;28;20309;-61
2023/03/11 07:54:19;;;;;;;1.35;1.25;;;;;;;;;;5120418;28;20238;-61
2023/03/11 07:56:47;;;;;;;1.50;1.13;;;;;;;;;;5120425;28;20252;-61
2023/03/11 07:59:15;;;;;;;1.73;1.00;;;;;;;;;;5119983;28;20199;-62
2023/03/11 08:01:45;;;;;;;1.48;1.20;;;;;;;;;;5119931;28;20209;-62
2023/03/11 08:04:15;;;;;;;1.45;1.15;;;;;;;;;;5119056;28;20206;-62
2023/03/11 08:06:43;;;;;;;4.30;2.38;;;;;;;;;;5120000;28;20203;-62
2023/03/11 08:09:11;;;;;;;6.47;3.42;;;;;;;;;;5119540;28;20272;-63
2023/03/11 08:11:40;;;;;;;5.63;3.10;;;;;;;;;;5119515;28;20221;-62
2023/03/11 08:14:08;;;;;;;5.10;3.25;;;;;;;;;;5120194;28;20562;-62
2023/03/11 08:16:35;;;;;;;5.68;3.20;;;;;;;;;;5119641;28;20225;-62
2023/03/11 08:19:03;;;;;;;8.00;4.28;;;;;;;;;;5120062;28;20199;-62
2023/03/11 08:21:31;;;;;;;7.28;5.32;;;;;;;;;;5120111;28;20297;-62
2023/03/11 08:23:59;;;;;;;6.97;4.68;;;;;;;;;;5119911;28;20210;-62
2023/03/11 08:26:26;;;;;;;7.18;4.22;;;;;;;;;;5119945;28;20221;-62
2023/03/11 08:28:56;;;;;;;5.68;4.65;;;;;;;;;;5119287;28;20233;-62
2023/03/11 08:31:25;;;;;;;4.80;3.72;;;;;;;;;;5119352;28;20203;-62
2023/03/11 08:33:53;;;;;;;5.15;4.22;;;;;;;;;;5119116;28;20262;-62
2023/03/11 08:36:21;;;;;;;5.70;3.92;;;;;;;;;;5134837;27;20278;-62
2023/03/11 08:38:49;;;;;;;5.85;4.00;;;;;;;;;;5139519;27;20241;-62
2023/03/11 08:41:16;;;;;;;5.82;3.67;;;;;;;;;;5139862;27;20285;-62
2023/03/11 08:43:44;;;;;;;5.18;3.80;;;;;;;;;;5139537;27;20210;-62
2023/03/11 08:46:15;;;;;;;4.57;3.38;;;;;;;;;;5139534;27;20209;-62
2023/03/11 08:48:42;;;;;;;5.93;3.58;;;;;;;;;;5139509;27;20317;-62
2023/03/11 08:51:11;;;;;;;5.75;3.45;;;;;;;;;;5139504;27;20740;-62
2023/03/11 08:53:38;;;;;;;4.80;3.47;;;;;;;;;;5140392;27;20205;-62
2023/03/11 08:56:06;;;;;;;4.50;3.30;;;;;;;;;;5139712;27;20478;-62
2023/03/11 08:58:35;;;;;;;4.70;3.33;;;;;;;;;;5139048;27;20527;-62
2023/03/11 09:01:03;;;;;;;4.47;2.85;;;;;;;;;;5138921;27;20201;-63
2023/03/11 09:03:34;;;;;;;4.80;3.05;;;;;;;;;;5138636;27;20199;-63
2023/03/11 09:06:02;;;;;;;4.68;3.03;;;;;;;;;;5138853;27;20202;-62
2023/03/11 09:08:30;;;;;;;3.45;2.72;;;;;;;;;;5138943;27;20318;-62
2023/03/11 09:10:57;;;;;;;4.88;3.00;;;;;;;;;;5138918;27;20302;-63
2023/03/11 09:13:27;;;;;;;4.15;2.80;;;;;;;;;;5138457;27;20194;-62
2023/03/11 09:15:55;;;;;;;4.68;3.05;;;;;;;;;;5154205;27;20293;-62
2023/03/11 09:18:23;;;;;;;4.10;2.90;;;;;;;;;;5159827;27;20201;-62
2023/03/11 09:20:56;;;;;;;4.55;2.97;;;;;;;;;;5159551;27;20653;-62
2023/03/11 09:23:24;;;;;;;3.55;2.53;;;;;;;;;;5159268;27;20232;-62
2023/03/11 09:25:52;;;;;;;3.15;2.63;;;;;;;;;;5158954;27;20201;-62
2023/03/11 09:28:19;;;;;;;3.85;2.40;;;;;;;;;;5158893;27;20227;-62
2023/03/11 09:30:46;;;;;;;4.43;2.67;;;;;;;;;;5158974;27;20292;-62
2023/03/11 09:33:14;;;;;;;2.42;2.08;;;;;;;;;;5159227;27;20237;-62
2023/03/11 09:35:41;;;;;;;4.03;2.97;;;;;;;;;;5159337;27;20223;-62
2023/03/11 09:38:10;;;;;;;11.65;9.77;;;;;;;;;;5159102;27;20202;-62
2023/03/11 09:40:46;;;;;;;9.20;7.90;;;;;;;;;;5159598;27;20611;-62
2023/03/11 09:43:20;;;;;;;9.45;7.90;;;;;;;;;;5158981;27;20241;-62
2023/03/11 09:45:51;;;;;;;8.85;7.07;;;;;;;;;;5159069;27;20292;-62
2023/03/11 09:48:21;;;;;;;7.78;6.97;;;;;;;;;;5158506;27;20291;-62
2023/03/11 09:50:52;;;;;;;7.50;6.75;;;;;;;;;;5158648;27;20292;-62
2023/03/11 09:53:37;;;;;;;7.82;6.50;;;;;;;;;;5159020;27;20771;-62
2023/03/11 09:56:06;;;;;;;8.82;6.38;;;;;;;;;;5158976;27;20288;-62
2023/03/11 09:58:38;;;;;;;7.32;6.13;;;;;;;;;;5158380;27;20197;-62
2023/03/11 10:01:09;;;;;;;7.90;6.45;;;;;;;;;;5158467;27;20237;-62
2023/03/11 10:03:37;;;;;;;8.95;7.10;;;;;;;;;;5158489;27;20261;-62
2023/03/11 10:06:13;;;;;;;8.32;7.50;;;;;;;;;;5157860;27;20205;-62
2023/03/11 10:08:43;;;;;;;8.48;7.50;;;;;;;;;;5157745;27;20236;-62
2023/03/11 10:11:20;;;;;;;7.38;6.53;;;;;;;;;;5158785;27;20201;-62
2023/03/11 10:13:53;;;;;;;6.88;6.07;;;;;;;;;;5157725;27;20193;-62
2023/03/11 10:16:23;;;;;;;7.95;6.50;;;;;;;;;;5157472;27;20300;-62
2023/03/11 10:18:55;;;;;;;7.97;6.20;;;;;;;;;;5158269;27;20223;-62
2023/03/11 10:21:29;;;;;;;9.27;6.18;;;;;;;;;;5158808;27;20209;-62
2023/03/11 10:24:04;;;;;;;6.63;5.95;;;;;;;;;;5157926;27;20288;-62
2023/03/11 10:26:35;;;;;;;6.97;6.15;;;;;;;;;;5157984;27;20211;-62
2023/03/11 10:29:08;;;;;;;7.85;5.65;;;;;;;;;;5161741;27;20225;-62
2023/03/11 10:31:38;;;;;;;6.55;5.05;;;;;;;;;;5162268;27;20233;-62
2023/03/11 10:34:12;;;;;;;6.97;4.90;;;;;;;;;;5142006;27;20194;-63
2023/03/11 10:36:41;;;;;;;6.32;5.45;;;;;;;;;;5141630;27;20492;-62
2023/03/11 10:39:11;;;;;;;5.03;4.47;;;;;;;;;;5141679;27;20202;-62
2023/03/11 10:41:43;;;;;;;6.53;4.93;;;;;;;;;;5141312;27;20497;-62
2023/03/11 10:44:13;;;;;;;5.28;4.35;;;;;;;;;;5142072;27;20695;-63
2023/03/11 10:46:41;;;;;;;5.43;4.25;;;;;;;;;;5141955;27;20293;-62
2023/03/11 10:49:14;;;;;;;5.00;4.50;;;;;;;;;;5140819;27;20705;-62
2023/03/11 10:51:42;;;;;;;5.63;4.07;;;;;;;;;;5141660;27;20205;-62
2023/03/11 10:54:21;;;;;;;5.93;4.00;;;;;;;;;;5140957;27;20206;-63
2023/03/11 10:56:54;;;;;;;4.75;4.00;;;;;;;;;;5141302;27;20198;-62
2023/03/11 10:59:24;;;;;;;5.20;3.88;;;;;;;;;;5141445;27;20205;-62
2023/03/11 11:01:55;;;;;;;5.78;4.45;;;;;;;;;;5140654;27;20548;-62
2023/03/11 11:04:30;;;;;;;4.32;3.90;;;;;;;;;;5140256;27;20209;-63
2023/03/11 11:06:59;;;;;;;4.82;3.47;;;;;;;;;;5141061;27;20202;-63
2023/03/11 11:09:29;;;;;;;3.85;3.45;;;;;;;;;;5141025;27;20222;-62
2023/03/11 11:12:07;;;;;;;3.45;3.10;;;;;;;;;;5141637;27;20224;-62
2023/03/11 11:14:45;;;;;;;3.80;3.40;;;;;;;;;;5139683;27;20245;-63
2023/03/11 11:17:17;;;;;;;5.55;3.30;;;;;;;;;;5140739;27;20210;-62
2023/03/11 11:19:45;;;;;;;3.92;3.30;;;;;;;;;;5140750;27;20292;-62
2023/03/11 11:22:16;;;;;;;4.40;3.47;;;;;;;;;;5141200;27;20293;-62
2023/03/11 11:24:45;;;;;;;3.40;3.08;;;;;;;;;;5141181;27;20202;-62
2023/03/11 11:27:17;;;;;;;3.20;2.90;;;;;;;;;;5140489;27;20245;-62
2023/03/11 11:29:45;;;;;;;4.90;3.00;;;;;;;;;;5140673;27;20234;-62
2023/03/11 11:32:19;;;;;;;3.35;3.05;;;;;;;;;;5139875;27;20333;-62
2023/03/11 11:34:58;;;;;;;3.65;2.97;;;;;;;;;;5140746;27;20616;-62
2023/03/11 11:37:30;;;;;;;2.90;2.58;;;;;;;;;;5140257;27;20702;-63
2023/03/11 11:40:07;;;;;;;3.33;2.80;;;;;;;;;;5139176;27;20264;-62
2023/03/11 11:42:36;;;;;;;2.95;2.55;;;;;;;;;;5140463;27;20202;-62
2023/03/11 11:45:05;;;;;;;2.95;2.75;;;;;;;;;;5140641;27;20241;-62
2023/03/11 11:47:34;;;;;;;2.60;2.40;;;;;;;;;;5140953;27;20241;-62
2023/03/11 11:50:03;;;;;;;3.30;2.60;;;;;;;;;;5139557;27;20321;-61
2023/03/11 11:52:34;;;;;;;2.95;2.65;;;;;;;;;;5140650;27;20828;-62
2023/03/11 11:55:05;;;;;;;3.30;2.30;;;;;;;;;;5130521;27;20605;-62
2023/03/11 11:57:33;;;;;;;2.70;2.50;;;;;;;;;;5119373;28;20568;-62
2023/03/11 12:00:02;;;;;;;2.63;2.35;;;;;;;;;;5119786;28;20191;-62
2023/03/11 12:02:43;;;;;;;2.40;2.20;;;;;;;;;;5111621;28;20225;-62
2023/03/11 12:05:16;;;;;;;2.67;2.35;;;;;;;;;;5119004;28;20301;-62
2023/03/11 12:07:50;;;;;;;2.53;2.15;;;;;;;;;;5118720;28;20210;-63
2023/03/11 12:10:22;;;;;;;2.30;2.10;;;;;;;;;;5119019;28;20219;-62
2023/03/11 12:12:54;;;;;;;2.53;2.33;;;;;;;;;;5118019;28;20580;-63
2023/03/11 12:15:25;;;;;;;3.00;2.20;;;;;;;;;;5118097;28;20282;-62
2023/03/11 12:17:55;;;;;;;2.10;1.90;;;;;;;;;;5117883;28;20202;-62
2023/03/11 12:20:27;;;;;;;1.70;1.60;;;;;;;;;;5118249;28;20598;-62
2023/03/11 12:23:22;;;;;;;2.55;1.88;;;;;;;;;;5118904;28;20490;-62
2023/03/11 12:26:02;;;;;;;2.10;1.83;;;;;;;;;;5082499;28;20249;-62
2023/03/11 12:28:37;;;;;;;1.70;1.60;;;;;;;;;;5109978;28;20236;-62
2023/03/11 12:31:08;;;;;;;1.90;1.80;;;;;;;;;;5118292;28;20589;-62
2023/03/11 12:33:36;;;;;;;1.65;1.55;;;;;;;;;;5135243;27;20325;-62
2023/03/11 12:36:05;;;;;;;1.70;1.60;;;;;;;;;;5139153;27;20206;-62
2023/03/11 12:38:34;;;;;;;1.80;1.52;;;;;;;;;;5138462;27;20590;-62
2023/03/11 12:41:05;;;;;;;1.90;1.80;;;;;;;;;;5138676;27;20259;-62
2023/03/11 12:43:51;;;;;;;1.88;1.50;;;;;;;;;;5137665;27;20620;-63
2023/03/11 12:46:19;;;;;;;2.00;1.70;;;;;;;;;;5138785;27;20226;-62
2023/03/11 12:48:48;;;;;;;1.42;1.33;;;;;;;;;;5138231;27;20245;-62
2023/03/11 12:51:36;;;;;;;1.50;1.40;;;;;;;;;;5137417;27;20617;-62
2023/03/11 12:54:21;;;;;;;1.70;1.60;;;;;;;;;;5139256;27;20205;-62
2023/03/11 12:56:55;;;;;;;2.40;1.73;;;;;;;;;;5138279;27;20230;-62
2023/03/11 12:59:36;;;;;;;1.58;1.48;;;;;;;;;;5138277;27;20216;-62
2023/03/11 13:02:19;;;;;;;1.65;1.38;;;;;;;;;;5137980;27;20208;-62
2023/03/11 13:04:52;;;;;;;1.60;1.50;;;;;;;;;;5137909;27;20657;-62
2023/03/11 13:07:31;;;;;;;1.88;1.20;;;;;;;;;;5137767;27;20293;-62
2023/03/11 13:10:05;;;;;;;1.73;1.33;;;;;;;;;;5137869;27;20237;-63
2023/03/11 13:12:41;;;;;;;1.58;1.48;;;;;;;;;;5137366;27;20202;-62
2023/03/11 13:15:35;;;;;;;1.55;1.23;;;;;;;;;;5137651;27;20574;-62
2023/03/11 13:18:05;;;;;;;1.85;1.27;;;;;;;;;;5101292;27;20293;-63
2023/03/11 13:20:50;;;;;;;1.33;1.20;;;;;;;;;;5138309;27;20201;-62
2023/03/11 13:23:34;;;;;;;1.70;1.40;;;;;;;;;;5137599;27;20305;-62
2023/03/11 13:26:15;;;;;;;1.23;1.10;;;;;;;;;;5138041;27;20211;-62
2023/03/11 13:28:58;;;;;;;1.33;1.20;;;;;;;;;;5136956;27;20203;-63
2023/03/11 13:31:36;;;;;;;1.13;1.00;;;;;;;;;;5136987;27;20261;-63
2023/03/11 13:34:06;;;;;;;1.20;1.10;;;;;;;;;;5136894;27;20287;-63
2023/03/11 13:36:42;;;;;;;1.40;1.13;;;;;;;;;;5137299;27;20198;-63
2023/03/11 13:39:20;;;;;;;1.85;1.30;;;;;;;;;;5136985;27;20564;-63
2023/03/11 13:41:48;;;;;;;1.30;1.20;;;;;;;;;;5137260;27;20197;-63
2023/03/11 13:44:23;;;;;;;1.52;1.25;;;;;;;;;;5137079;27;20198;-63
2023/03/11 13:46:51;;;;;;;1.35;1.25;;;;;;;;;;5136468;27;20198;-63
2023/03/11 13:49:25;;;;;;;1.10;1.00;;;;;;;;;;5137072;27;20502;-63
2023/03/11 13:51:55;;;;;;;1.42;1.00;;;;;;;;;;5136688;27;20300;-63
2023/03/11 13:54:29;;;;;;;1.10;0.98;;;;;;;;;;5137369;27;20198;-63
2023/03/11 13:56:58;;;;;;;1.13;1.02;;;;;;;;;;5136703;27;20202;-63
2023/03/11 13:59:28;;;;;;;1.25;1.00;;;;;;;;;;5136537;27;20296;-63
2023/03/11 14:01:57;;;;;;;1.27;1.05;;;;;;;;;;5136276;27;20209;-63
2023/03/11 14:04:27;;;;;;;1.35;1.02;;;;;;;;;;5136261;27;20213;-63
2023/03/11 14:06:54;;;;;;;1.17;0.80;;;;;;;;;;5136722;27;20199;-63
2023/03/11 14:09:23;;;;;;;1.20;1.10;;;;;;;;;;5137428;27;20584;-63
2023/03/11 14:11:53;;;;;;;1.10;0.90;;;;;;;;;;5135024;27;20250;-63
2023/03/11 14:14:30;;;;;;;1.02;0.93;;;;;;;;;;5136675;27;20799;-63
2023/03/11 14:17:00;;;;;;;1.35;1.25;;;;;;;;;;5136895;27;20202;-63
2023/03/11 14:19:28;;;;;;;1.10;1.00;;;;;;;;;;5128218;28;20206;-63
2023/03/11 14:21:55;;;;;;;1.35;1.00;;;;;;;;;;5136271;27;20195;-63
2023/03/11 14:24:25;;;;;;;1.13;1.00;;;;;;;;;;5136035;27;20206;-63
2023/03/11 14:26:54;;;;;;;1.10;1.00;;;;;;;;;;5136479;27;20675;-63
2023/03/11 14:29:24;;;;;;;0.93;0.80;;;;;;;;;;5136652;27;20284;-62
2023/03/11 14:31:53;;;;;;;1.35;1.00;;;;;;;;;;5135620;27;20261;-63
2023/03/11 14:34:21;;;;;;;0.77;0.77;;;;;;;;;;5137041;27;20237;-63
2023/03/11 14:36:52;;;;;;;0.80;0.80;;;;;;;;;;5136845;28;20688;-63
2023/03/11 14:39:27;;;;;;;0.85;0.85;;;;;;;;;;5136281;27;20567;-63
2023/03/11 14:41:56;;;;;;;1.25;0.90;;;;;;;;;;5135964;28;20250;-63
2023/03/11 14:44:24;;;;;;;1.83;1.00;;;;;;;;;;5136623;28;20309;-63
2023/03/11 14:46:54;;;;;;;1.10;1.00;;;;;;;;;;5135618;27;20266;-63
2023/03/11 14:49:24;;;;;;;0.70;0.70;;;;;;;;;;5136160;27;20198;-63
2023/03/11 14:51:57;;;;;;;1.10;1.00;;;;;;;;;;5136466;28;20218;-62
2023/03/11 14:54:28;;;;;;;0.98;0.98;;;;;;;;;;5136625;27;20202;-63
2023/03/11 14:56:59;;;;;;;0.90;0.90;;;;;;;;;;5136095;27;20209;-63
2023/03/11 14:59:27;;;;;;;0.95;0.90;;;;;;;;;;5136675;27;20674;-63